createdAt,value
2022-12-01T05:03:15.276Z,18.25
2022-12-01T05:07:18.439Z,18.35
2022-12-01T05:11:21.379Z,18.55
2022-12-01T05:15:24.249Z,17.63
2022-12-01T05:19:46.176Z,17.45
2022-12-01T05:23:49.039Z,17.75
2022-12-01T05:27:51.747Z,17.13
2022-12-01T05:31:54.621Z,18.10
2022-12-01T05:35:58.973Z,18.77
2022-12-01T05:40:01.971Z,16.15
2022-12-01T05:44:04.959Z,17.38
2022-12-01T05:52:52.028Z,16.90
2022-12-01T05:56:54.795Z,19.15
2022-12-01T06:00:57.574Z,16.50
2022-12-01T06:05:00.353Z,17.10
2022-12-01T06:09:04.940Z,18.83
2022-12-01T06:13:07.767Z,17.85
2022-12-01T06:17:10.658Z,18.17
2022-12-01T06:21:13.453Z,16.17
2022-12-01T06:25:17.787Z,15.63
2022-12-01T06:29:20.645Z,16.88
2022-12-01T06:33:23.405Z,17.00
2022-12-01T06:37:26.266Z,16.80
2022-12-01T06:41:30.396Z,16.13
2022-12-01T06:45:33.360Z,16.42
2022-12-01T06:49:36.234Z,16.92
2022-12-01T06:53:39.031Z,16.10
2022-12-01T06:57:44.023Z,16.67
2022-12-01T07:01:47.449Z,17.23
2022-12-01T07:05:58.465Z,16.65
2022-12-01T07:10:01.269Z,16.52
2022-12-01T07:14:05.448Z,16.55
2022-12-01T07:18:08.178Z,16.42
2022-12-01T07:22:11.333Z,16.90
2022-12-01T07:26:16.275Z,17.25
2022-12-01T07:30:25.419Z,17.27
2022-12-01T07:34:30.957Z,17.02
2022-12-01T07:38:35.051Z,17.98
2022-12-01T07:42:37.848Z,18.23
2022-12-01T07:46:42.063Z,16.55
2022-12-01T07:50:44.943Z,17.38
2022-12-01T07:54:47.767Z,18.00
2022-12-01T07:58:50.554Z,18.58
2022-12-01T08:02:54.807Z,18.63
2022-12-01T08:06:57.680Z,18.63
2022-12-01T13:30:27.311Z,14.07
2022-12-01T13:34:36.780Z,14.30
2022-12-01T13:38:40.427Z,12.85
2022-12-01T13:42:44.039Z,12.90
2022-12-01T13:46:59.807Z,12.75
2022-12-01T13:51:02.921Z,13.60
2022-12-01T13:55:30.019Z,14.00
2022-12-01T14:00:00.353Z,12.93
2022-12-01T14:04:25.037Z,12.02
2022-12-01T14:08:30.551Z,13.52
2022-12-01T14:12:37.688Z,12.27
2022-12-01T14:16:48.651Z,13.13
2022-12-01T14:20:53.132Z,12.23
2022-12-01T14:24:57.474Z,12.23
2022-12-01T14:29:28.424Z,11.30
2022-12-01T14:33:52.066Z,10.73
2022-12-01T14:37:58.684Z,11.07
2022-12-01T14:42:03.958Z,10.93
2022-12-01T14:46:09.581Z,11.35
2022-12-01T14:50:17.579Z,9.38
2022-12-01T14:54:27.562Z,11.35
2022-12-01T14:58:32.525Z,11.57
2022-12-01T15:02:40.188Z,12.57
2022-12-01T15:06:44.869Z,13.63
2022-12-01T15:14:55.848Z,11.88
2022-12-01T15:18:58.830Z,13.53
2022-12-01T15:23:03.310Z,12.25
2022-12-01T15:27:25.438Z,12.98
2022-12-01T15:31:28.137Z,11.40
2022-12-01T15:35:30.955Z,12.73
2022-12-01T15:39:36.029Z,12.82
2022-12-01T15:43:41.230Z,10.98
2022-12-01T15:47:47.116Z,12.45
2022-12-01T15:51:51.390Z,12.68
2022-12-01T15:55:59.022Z,12.20
2022-12-01T16:00:04.507Z,13.45
2022-12-01T16:04:19.319Z,14.10
2022-12-01T16:08:24.776Z,12.88
2022-12-01T16:12:28.677Z,12.32
2022-12-01T16:16:44.716Z,12.07
2022-12-01T16:20:47.418Z,12.95
2022-12-01T16:24:53.080Z,11.40
2022-12-01T16:28:56.661Z,13.95
2022-12-01T16:33:06.309Z,12.10
2022-12-01T16:37:11.760Z,13.25
2022-12-01T16:41:25.633Z,13.48
2022-12-01T16:45:28.352Z,13.07
2022-12-01T16:49:33.067Z,13.77
2022-12-01T16:53:35.715Z,13.73
2022-12-01T16:57:38.321Z,13.63
2022-12-01T17:01:40.955Z,13.30
2022-12-01T17:05:44.985Z,14.53
2022-12-01T17:09:47.671Z,14.18
2022-12-01T17:13:50.307Z,13.87
2022-12-01T17:17:53.005Z,13.37
2022-12-01T17:21:56.973Z,11.80
2022-12-01T17:26:00.448Z,13.00
2022-12-01T17:34:05.813Z,12.85
2022-12-01T17:38:10.063Z,12.73
2022-12-01T17:42:12.778Z,11.85
2022-12-01T17:46:15.851Z,12.50
2022-12-01T17:50:18.728Z,12.10
2022-12-01T17:54:23.437Z,11.38
2022-12-01T17:58:26.185Z,10.73
2022-12-01T18:02:29.168Z,11.95
2022-12-01T18:06:32.214Z,12.05
2022-12-01T18:10:36.538Z,12.45
2022-12-01T18:14:40.675Z,11.48
2022-12-01T18:18:43.952Z,12.48
2022-12-01T18:22:47.380Z,12.45
2022-12-01T18:34:56.750Z,13.20
2022-12-01T18:39:01.218Z,11.60
2022-12-01T18:43:05.805Z,11.98
2022-12-01T18:47:10.967Z,12.93
2022-12-01T18:51:13.830Z,12.23
2022-12-01T18:55:16.507Z,13.23
2022-12-01T18:59:20.585Z,12.07
2022-12-01T19:03:23.234Z,12.05
2022-12-01T19:07:29.738Z,12.60
2022-12-01T19:11:34.122Z,13.30
2022-12-01T19:15:38.538Z,14.55
2022-12-01T19:19:41.201Z,13.18
2022-12-01T19:23:44.574Z,14.17
2022-12-01T19:27:47.626Z,12.15
2022-12-01T19:31:51.986Z,12.38
2022-12-01T19:35:54.706Z,12.35
2022-12-01T19:39:57.353Z,12.57
2022-12-01T19:43:59.995Z,13.13
2022-12-01T19:48:04.017Z,12.43
2022-12-01T19:52:06.837Z,12.43
2022-12-01T19:56:10.594Z,13.10
2022-12-01T20:00:14.200Z,12.82
2022-12-01T20:04:18.286Z,13.65
2022-12-01T20:08:20.978Z,13.98
2022-12-01T20:12:23.678Z,14.27
2022-12-01T20:16:28.763Z,13.40
2022-12-01T20:20:32.763Z,12.98
2022-12-01T20:24:36.623Z,12.88
2022-12-01T20:28:40.466Z,12.45
2022-12-01T20:32:43.091Z,12.48
2022-12-01T20:36:48.771Z,13.65
2022-12-01T20:40:52.647Z,11.88
2022-12-01T20:44:55.349Z,14.35
2022-12-01T20:48:58.057Z,14.63
2022-12-01T20:53:02.061Z,12.63
2022-12-01T20:57:04.727Z,12.55
2022-12-01T21:01:09.747Z,14.20
2022-12-01T21:05:12.648Z,12.63
2022-12-01T21:09:16.679Z,13.75
2022-12-01T21:13:42.096Z,12.95
2022-12-01T21:17:50.922Z,12.98
2022-12-01T21:21:53.704Z,12.60
2022-12-01T21:25:58.191Z,12.82
2022-12-01T21:30:01.535Z,11.80
2022-12-01T21:34:11.074Z,12.48
2022-12-01T21:38:20.459Z,13.35
2022-12-01T21:42:27.908Z,13.25
2022-12-01T21:46:30.809Z,13.68
2022-12-01T21:50:33.680Z,12.45
2022-12-01T21:54:36.376Z,12.95
2022-12-01T21:58:40.383Z,12.87
